Time;durP1;ratioP1;P1;durP2;ratioP2;P2;SDS_P1;SDS_P2;PMS_P1;PMS_P2;Temp;Humidity;BMP_temperature;BMP_pressure;BME280_temperature;BME280_humidity;BME280_pressure;Samples;Min_cycle;Max_cycle;Signal;HPM_P1;HPM_P2
2021/10/19 01:47:25;;;;;;;13.40;11.03;;;10.90;98.30;;;;;;4197380;23;20669;-80
2021/10/19 01:49:29;;;;;;;14.20;11.13;;;10.90;98.30;;;;;;4196571;28;20970;-80
2021/10/19 01:51:32;;;;;;;13.63;10.83;;;11.00;98.30;;;;;;4194580;28;20455;-80
2021/10/19 01:53:35;;;;;;;14.20;11.77;;;11.00;98.30;;;;;;4192045;28;20462;-79
2021/10/19 01:55:39;;;;;;;13.90;11.00;;;11.00;98.30;;;;;;4199834;28;20497;-80
2021/10/19 01:57:42;;;;;;;13.70;10.73;;;10.90;98.30;;;;;;4200569;28;20462;-82
2021/10/19 01:59:45;;;;;;;17.73;12.00;;;11.00;98.30;;;;;;4196716;28;20950;-83
2021/10/19 02:01:48;;;;;;;16.40;12.47;;;11.00;98.30;;;;;;4187558;28;20486;-83
2021/10/19 02:03:53;;;;;;;13.97;10.80;;;11.00;98.30;;;;;;4190609;28;20466;-83
2021/10/19 02:05:56;;;;;;;15.20;11.43;;;11.00;98.30;;;;;;4193962;28;20555;-83
2021/10/19 02:08:00;;;;;;;15.10;10.43;;;10.90;98.30;;;;;;4191368;28;20464;-83
2021/10/19 02:10:04;;;;;;;17.17;11.10;;;10.90;98.30;;;;;;4192268;28;20499;-83
2021/10/19 02:12:07;;;;;;;15.33;11.70;;;10.80;98.30;;;;;;4192164;28;20882;-83
2021/10/19 02:14:10;;;;;;;16.33;12.37;;;10.80;98.30;;;;;;4191765;28;20473;-83
2021/10/19 02:16:13;;;;;;;17.73;12.07;;;10.90;98.30;;;;;;4192288;28;20930;-83
2021/10/19 02:18:16;;;;;;;14.10;11.80;;;10.90;98.30;;;;;;4194051;28;20958;-84
2021/10/19 02:20:24;;;;;;;18.63;11.63;;;10.90;98.30;;;;;;4194520;28;20459;-82
2021/10/19 02:22:27;;;;;;;14.20;11.37;;;10.90;98.30;;;;;;4193048;28;20455;-83
2021/10/19 02:24:30;;;;;;;15.47;11.53;;;10.90;98.30;;;;;;4193301;28;20542;-83
2021/10/19 02:26:33;;;;;;;16.97;12.30;;;10.90;98.30;;;;;;4192185;28;20494;-83
2021/10/19 02:28:36;;;;;;;16.77;12.00;;;11.00;98.30;;;;;;4193029;28;20468;-83
2021/10/19 02:30:39;;;;;;;15.43;11.27;;;10.90;98.30;;;;;;4190207;28;20863;-83
2021/10/19 02:32:43;;;;;;;16.37;12.27;;;10.90;98.30;;;;;;4196382;28;20496;-83
2021/10/19 02:34:46;;;;;;;15.30;11.50;;;10.90;98.30;;;;;;4200551;28;20465;-83
2021/10/19 02:36:51;;;;;;;15.73;11.10;;;10.80;98.30;;;;;;4200299;28;20497;-83
2021/10/19 02:38:54;;;;;;;15.03;11.47;;;10.80;98.30;;;;;;4191930;28;20634;-83
2021/10/19 02:40:57;;;;;;;15.23;10.87;;;10.80;98.30;;;;;;4197664;28;20486;-83
2021/10/19 02:43:00;;;;;;;18.30;11.87;;;10.80;98.30;;;;;;4194121;28;20463;-82
2021/10/19 02:45:27;;;;;;;14.73;12.07;;;10.80;98.30;;;;;;4189935;28;20520;-83
2021/10/19 02:47:30;;;;;;;19.63;11.40;;;10.70;98.30;;;;;;4189452;28;20578;-83
2021/10/19 02:49:33;;;;;;;15.60;11.40;;;10.70;98.30;;;;;;4197729;28;20507;-84
2021/10/19 02:51:36;;;;;;;13.40;10.67;;;10.80;98.30;;;;;;4201972;28;20467;-82
2021/10/19 02:53:42;;;;;;;15.63;12.30;;;10.80;98.30;;;;;;4195662;28;20467;-82
2021/10/19 02:55:45;;;;;;;17.53;12.43;;;10.80;98.30;;;;;;4184501;28;20483;-83
2021/10/19 02:57:48;;;;;;;14.83;11.83;;;10.80;98.30;;;;;;4186459;28;20562;-82
2021/10/19 02:59:51;;;;;;;18.63;12.13;;;10.70;98.30;;;;;;4189404;28;20471;-82
2021/10/19 03:01:54;;;;;;;18.03;12.40;;;10.70;98.30;;;;;;4189732;28;20475;-82
2021/10/19 03:04:00;;;;;;;15.77;12.10;;;10.70;98.30;;;;;;4191455;28;21107;-82
2021/10/19 03:06:02;;;;;;;19.73;12.83;;;10.70;98.30;;;;;;4186046;28;20488;-82
2021/10/19 03:08:05;;;;;;;14.50;11.83;;;10.70;98.30;;;;;;4177516;28;20468;-82
2021/10/19 03:10:10;;;;;;;16.60;14.30;;;10.70;98.30;;;;;;4186051;28;20475;-82
2021/10/19 03:12:13;;;;;;;15.70;11.43;;;10.70;98.30;;;;;;4194405;28;20459;-82
2021/10/19 03:14:16;;;;;;;17.87;12.50;;;10.70;98.30;;;;;;4185770;28;20894;-82
2021/10/19 03:16:19;;;;;;;18.57;11.67;;;10.70;98.30;;;;;;4189888;28;20496;-82
2021/10/19 03:18:22;;;;;;;18.70;11.70;;;10.70;98.30;;;;;;4192387;28;20482;-82
2021/10/19 03:20:25;;;;;;;17.23;12.73;;;10.70;98.30;;;;;;4191083;28;20464;-83
2021/10/19 03:22:28;;;;;;;22.33;12.83;;;10.70;98.30;;;;;;4183346;28;20474;-82
2021/10/19 03:24:31;;;;;;;19.77;13.90;;;10.70;98.30;;;;;;4189847;28;20551;-82
2021/10/19 03:26:35;;;;;;;18.53;12.20;;;10.70;98.30;;;;;;4182508;28;20559;-82
2021/10/19 03:28:38;;;;;;;18.00;13.40;;;10.70;98.30;;;;;;4182990;28;20480;-82
2021/10/19 03:30:42;;;;;;;16.60;13.00;;;10.60;98.30;;;;;;4183103;28;20947;-82
2021/10/19 03:32:45;;;;;;;18.30;13.13;;;10.60;98.30;;;;;;4191612;28;20463;-82
2021/10/19 03:34:48;;;;;;;18.67;13.20;;;10.70;98.30;;;;;;4197785;28;20540;-83
2021/10/19 03:36:51;;;;;;;16.30;12.90;;;10.70;98.30;;;;;;4198504;28;20484;-82
2021/10/19 03:38:54;;;;;;;19.03;13.57;;;10.70;98.30;;;;;;4198744;28;20468;-81
2021/10/19 03:40:57;;;;;;;23.70;13.60;;;10.70;98.30;;;;;;4206233;28;20524;-82
2021/10/19 03:43:01;;;;;;;23.37;14.10;;;10.70;98.30;;;;;;4197978;28;20464;-82
2021/10/19 03:45:04;;;;;;;19.60;14.03;;;10.70;98.30;;;;;;4197231;28;20467;-82
2021/10/19 03:47:10;;;;;;;23.00;14.10;;;10.80;98.30;;;;;;4200524;28;20489;-82
2021/10/19 03:49:13;;;;;;;24.37;14.37;;;10.70;98.30;;;;;;4185682;28;20484;-82
2021/10/19 03:51:16;;;;;;;18.60;14.43;;;10.70;98.30;;;;;;4189220;28;20463;-82
2021/10/19 03:53:19;;;;;;;18.30;12.80;;;10.80;98.30;;;;;;4189652;28;20471;-82
2021/10/19 03:55:22;;;;;;;20.40;13.80;;;10.80;98.30;;;;;;4192545;28;20468;-82
2021/10/19 03:57:27;;;;;;;18.80;14.10;;;10.80;98.30;;;;;;4186971;28;20529;-82
2021/10/19 03:59:31;;;;;;;17.90;12.73;;;10.80;98.30;;;;;;4187507;28;20490;-82
2021/10/19 04:01:34;;;;;;;19.53;14.53;;;10.80;98.30;;;;;;4187559;28;20954;-81
2021/10/19 04:03:37;;;;;;;20.23;14.40;;;10.90;98.30;;;;;;4187142;28;20472;-82
2021/10/19 04:05:41;;;;;;;19.50;13.10;;;10.80;98.30;;;;;;4187281;28;20472;-82
2021/10/19 04:07:45;;;;;;;18.23;13.33;;;10.90;98.30;;;;;;4186268;28;20558;-82
2021/10/19 04:09:49;;;;;;;17.40;13.80;;;10.90;98.30;;;;;;4188507;28;20510;-83
2021/10/19 04:11:52;;;;;;;19.20;14.23;;;10.90;98.30;;;;;;4190315;28;20843;-82
2021/10/19 04:13:56;;;;;;;20.27;14.20;;;10.80;98.30;;;;;;4190338;28;20535;-82
2021/10/19 04:16:01;;;;;;;19.33;14.37;;;10.80;98.30;;;;;;4189273;28;20578;-82
2021/10/19 04:18:04;;;;;;;20.90;13.87;;;10.80;98.30;;;;;;4188519;28;20474;-82
2021/10/19 04:20:07;;;;;;;24.77;14.50;;;10.80;98.30;;;;;;4185845;28;20471;-82
2021/10/19 04:22:13;;;;;;;21.07;14.00;;;10.70;98.30;;;;;;4180311;28;20967;-83
2021/10/19 04:24:16;;;;;;;19.07;14.20;;;10.80;98.30;;;;;;4189366;28;20474;-83
2021/10/19 04:26:21;;;;;;;23.00;15.77;;;10.80;98.30;;;;;;4194451;28;20497;-83
2021/10/19 04:28:24;;;;;;;22.47;15.70;;;10.80;98.30;;;;;;4187757;28;20460;-82
2021/10/19 04:30:27;;;;;;;21.87;13.97;;;10.80;98.30;;;;;;4187286;28;20471;-81
2021/10/19 04:32:34;;;;;;;22.83;15.87;;;10.80;98.30;;;;;;4195987;28;20478;-82
2021/10/19 04:34:37;;;;;;;22.40;15.00;;;10.80;98.30;;;;;;4203796;28;20468;-82
2021/10/19 04:36:40;;;;;;;26.13;15.00;;;10.90;98.30;;;;;;4200779;28;20497;-82
2021/10/19 04:38:43;;;;;;;22.77;14.73;;;10.90;98.30;;;;;;4198313;28;20521;-82
2021/10/19 04:40:46;;;;;;;20.60;14.77;;;10.90;98.30;;;;;;4192164;28;20464;-82
2021/10/19 04:42:49;;;;;;;24.10;15.43;;;10.90;98.30;;;;;;4184694;28;20492;-82
2021/10/19 04:44:51;;;;;;;21.43;15.57;;;11.00;98.30;;;;;;4189863;28;20467;-82
2021/10/19 04:46:54;;;;;;;24.20;15.50;;;10.90;98.30;;;;;;4191599;28;20490;-82
2021/10/19 04:48:58;;;;;;;22.27;15.97;;;10.90;98.30;;;;;;4197969;28;20460;-81
2021/10/19 04:51:01;;;;;;;22.70;15.07;;;11.00;98.30;;;;;;4190105;28;20468;-82
2021/10/19 04:53:04;;;;;;;21.43;15.10;;;10.90;98.30;;;;;;4189035;28;21046;-81
2021/10/19 04:55:08;;;;;;;27.47;15.67;;;11.00;98.30;;;;;;4189710;28;21153;-82
2021/10/19 04:57:11;;;;;;;26.43;16.30;;;11.00;98.30;;;;;;4190255;28;20495;-81
2021/10/19 04:59:14;;;;;;;20.00;14.70;;;11.00;98.30;;;;;;4196614;28;20892;-81
2021/10/19 05:01:16;;;;;;;23.07;15.90;;;11.00;98.30;;;;;;4198096;28;20455;-82
2021/10/19 05:03:20;;;;;;;22.97;16.33;;;11.00;98.30;;;;;;4190532;28;20474;-81
2021/10/19 05:05:25;;;;;;;24.30;16.20;;;11.00;98.30;;;;;;4190795;28;21033;-81
2021/10/19 05:07:28;;;;;;;22.77;15.40;;;11.10;98.30;;;;;;4199628;28;20490;-81
2021/10/19 05:09:32;;;;;;;28.10;17.43;;;11.00;98.30;;;;;;4191120;28;20475;-81
2021/10/19 05:11:35;;;;;;;22.37;15.60;;;11.10;98.30;;;;;;4191136;28;20554;-82
2021/10/19 05:13:38;;;;;;;24.40;15.90;;;11.00;98.30;;;;;;4191615;28;20460;-82
2021/10/19 05:15:41;;;;;;;23.40;16.07;;;11.00;98.30;;;;;;4190477;28;20552;-81
2021/10/19 05:17:44;;;;;;;24.93;17.00;;;11.00;98.30;;;;;;4191439;28;20490;-82
2021/10/19 05:19:47;;;;;;;23.33;17.33;;;11.00;98.30;;;;;;4200173;28;20467;-81
2021/10/19 05:21:51;;;;;;;24.70;16.47;;;11.00;98.30;;;;;;4200720;28;20468;-81
2021/10/19 05:23:54;;;;;;;23.30;15.73;;;11.00;98.30;;;;;;4192164;28;20471;-81
2021/10/19 05:25:57;;;;;;;24.07;15.70;;;11.00;98.30;;;;;;4202624;28;20488;-81
2021/10/19 05:28:00;;;;;;;23.73;16.20;;;11.00;98.30;;;;;;4192668;28;20472;-81
2021/10/19 05:30:03;;;;;;;20.20;15.43;;;11.00;98.30;;;;;;4200585;28;20456;-81
2021/10/19 05:32:06;;;;;;;20.03;14.57;;;11.00;98.30;;;;;;4193167;28;20567;-81
2021/10/19 05:34:12;;;;;;;22.27;15.43;;;11.00;98.30;;;;;;4201281;28;20459;-82
2021/10/19 05:36:21;;;;;;;25.17;16.33;;;11.00;98.30;;;;;;4193716;28;20492;-81
2021/10/19 05:38:25;;;;;;;20.77;15.43;;;11.00;98.30;;;;;;4193110;28;20480;-81
2021/10/19 05:40:28;;;;;;;21.97;15.43;;;11.00;98.30;;;;;;4200488;28;20471;-81
2021/10/19 05:42:31;;;;;;;23.27;17.30;;;11.00;98.30;;;;;;4201663;28;20489;-81
2021/10/19 05:44:34;;;;;;;25.37;15.33;;;11.00;98.30;;;;;;4206308;28;20472;-82
2021/10/19 05:46:37;;;;;;;25.80;16.50;;;11.10;98.30;;;;;;4207074;28;20554;-82
2021/10/19 05:48:40;;;;;;;25.73;15.00;;;11.20;98.30;;;;;;4203500;28;20870;-81
2021/10/19 05:50:43;;;;;;;27.60;17.00;;;11.20;98.30;;;;;;4203170;28;20467;-81
2021/10/19 05:52:46;;;;;;;25.70;16.23;;;11.20;98.30;;;;;;4197541;28;20468;-81
2021/10/19 05:54:51;;;;;;;23.27;16.50;;;11.20;98.30;;;;;;4209113;28;20503;-81
2021/10/19 05:56:54;;;;;;;27.70;18.57;;;11.20;98.30;;;;;;4205443;28;20553;-82
2021/10/19 05:58:57;;;;;;;23.67;17.50;;;11.20;98.30;;;;;;4204037;28;20470;-81
2021/10/19 06:00:59;;;;;;;29.00;18.80;;;11.20;98.30;;;;;;4211484;28;20462;-81
2021/10/19 06:03:03;;;;;;;27.57;18.17;;;11.30;98.30;;;;;;4201021;28;20489;-81
2021/10/19 06:05:06;;;;;;;29.93;17.40;;;11.30;98.30;;;;;;4196093;28;20467;-82
2021/10/19 06:07:08;;;;;;;26.30;17.07;;;11.30;98.30;;;;;;4213120;28;20550;-81
2021/10/19 06:09:11;;;;;;;23.60;16.77;;;11.30;98.30;;;;;;4209969;28;20470;-82
2021/10/19 06:11:15;;;;;;;25.63;17.63;;;11.30;98.30;;;;;;4199732;28;20472;-82
2021/10/19 06:13:18;;;;;;;23.70;15.90;;;11.30;98.30;;;;;;4206415;28;20466;-82
2021/10/19 06:15:24;;;;;;;28.17;17.43;;;11.30;98.30;;;;;;4199349;28;20477;-83
2021/10/19 06:17:27;;;;;;;31.07;17.77;;;11.30;98.30;;;;;;4201527;28;20503;-81
2021/10/19 06:19:30;;;;;;;25.67;17.87;;;11.30;98.30;;;;;;4208492;28;20457;-81
2021/10/19 06:21:33;;;;;;;26.80;17.93;;;11.30;98.30;;;;;;4199415;28;20470;-81
2021/10/19 06:23:36;;;;;;;25.00;18.07;;;11.40;98.30;;;;;;4202991;28;20474;-81
2021/10/19 06:25:39;;;;;;;25.07;17.07;;;11.40;98.30;;;;;;4198749;28;20467;-81
2021/10/19 06:27:43;;;;;;;25.77;16.80;;;11.40;98.30;;;;;;4204101;28;20471;-81
2021/10/19 06:29:46;;;;;;;25.50;16.63;;;11.40;98.30;;;;;;4201775;28;20468;-81
2021/10/19 06:31:49;;;;;;;26.77;16.63;;;11.40;98.30;;;;;;4204844;28;20467;-81
2021/10/19 06:33:52;;;;;;;26.73;18.17;;;11.40;98.30;;;;;;4198559;28;20911;-81
2021/10/19 06:35:55;;;;;;;22.23;17.00;;;11.40;98.30;;;;;;4199168;28;20471;-82
2021/10/19 06:37:58;;;;;;;24.80;17.13;;;11.50;98.30;;;;;;4199881;28;20479;-81
2021/10/19 06:40:01;;;;;;;22.20;16.10;;;11.50;98.30;;;;;;4198842;28;20475;-81
2021/10/19 06:42:06;;;;;;;24.80;16.63;;;11.50;98.30;;;;;;4192577;28;20468;-82
2021/10/19 06:44:11;;;;;;;28.43;17.40;;;11.60;98.30;;;;;;4183845;28;20463;-81
2021/10/19 06:46:34;;;;;;;29.00;17.63;;;11.60;98.30;;;;;;4199814;28;20896;-82
2021/10/19 06:48:37;;;;;;;26.10;18.10;;;11.60;98.30;;;;;;4190751;28;20467;-81
2021/10/19 06:50:40;;;;;;;23.13;17.23;;;11.70;98.30;;;;;;4190645;28;20458;-81
2021/10/19 06:52:43;;;;;;;24.87;17.90;;;11.60;98.30;;;;;;4191629;28;20489;-81
2021/10/19 06:54:46;;;;;;;25.40;18.20;;;11.60;98.30;;;;;;4192186;28;20466;-81
2021/10/19 06:56:48;;;;;;;23.50;17.10;;;11.60;98.30;;;;;;4193216;28;20529;-82
2021/10/19 06:58:51;;;;;;;22.70;16.63;;;11.70;98.30;;;;;;4190715;28;20502;-81
2021/10/19 07:00:56;;;;;;;25.40;17.70;;;11.70;98.30;;;;;;4204956;28;20827;-82
2021/10/19 07:02:59;;;;;;;24.20;17.20;;;11.70;98.30;;;;;;4187846;28;20981;-81
2021/10/19 07:05:02;;;;;;;22.83;17.07;;;11.70;98.30;;;;;;4197733;28;20463;-82
2021/10/19 07:07:05;;;;;;;24.47;17.63;;;11.80;98.30;;;;;;4207259;28;20506;-82
2021/10/19 07:09:08;;;;;;;26.77;17.87;;;11.80;98.30;;;;;;4190979;28;20523;-82
2021/10/19 07:11:10;;;;;;;23.33;17.67;;;11.80;98.30;;;;;;4206996;28;20470;-81
2021/10/19 07:13:23;;;;;;;29.90;18.17;;;11.90;98.30;;;;;;4199189;28;21018;-81
2021/10/19 07:15:33;;;;;;;25.17;17.30;;;11.90;98.30;;;;;;4199372;28;20479;-81
2021/10/19 07:17:38;;;;;;;24.20;18.33;;;11.90;98.30;;;;;;4201553;28;20899;-81
2021/10/19 07:19:41;;;;;;;24.77;17.30;;;12.00;98.30;;;;;;4196367;28;20506;-81
2021/10/19 07:21:44;;;;;;;27.20;18.07;;;12.00;98.30;;;;;;4208532;28;20468;-81
2021/10/19 07:23:47;;;;;;;26.03;17.30;;;12.00;98.30;;;;;;4199682;28;20481;-82
2021/10/19 07:25:51;;;;;;;28.43;16.23;;;12.00;98.30;;;;;;4199337;28;20459;-82
2021/10/19 07:27:56;;;;;;;27.00;16.03;;;12.00;98.30;;;;;;4200503;28;20458;-81
2021/10/19 07:30:00;;;;;;;22.27;16.97;;;12.10;98.30;;;;;;4200901;28;20538;-81
2021/10/19 07:32:03;;;;;;;28.20;17.63;;;12.10;98.30;;;;;;4208989;28;20501;-82
2021/10/19 07:34:09;;;;;;;25.63;18.63;;;12.00;98.30;;;;;;4209045;28;20463;-81
2021/10/19 07:36:11;;;;;;;23.27;17.53;;;12.10;98.30;;;;;;4201108;28;20483;-81
2021/10/19 07:38:17;;;;;;;27.53;17.60;;;12.10;98.30;;;;;;4201635;28;20465;-81
2021/10/19 07:40:20;;;;;;;26.30;17.93;;;12.10;98.30;;;;;;4195847;28;21039;-82
2021/10/19 07:42:23;;;;;;;27.70;18.37;;;12.10;98.30;;;;;;4201714;28;20533;-81
2021/10/19 07:44:26;;;;;;;27.70;19.77;;;12.20;98.30;;;;;;4202059;28;20462;-81
2021/10/19 18:58:03;;;;;;;37.23;25.03;;;15.90;98.30;;;;;;4245803;22;20504;-81
2021/10/19 19:00:08;;;;;;;39.60;23.63;;;15.90;98.30;;;;;;4141686;28;20850;-81
2021/10/19 19:02:12;;;;;;;42.83;24.47;;;15.90;98.30;;;;;;4144519;28;20501;-81
2021/10/19 19:09:37;;;;;;;37.37;24.40;;;16.00;98.30;;;;;;4129811;28;20494;-82
2021/10/19 19:12:19;;;;;;;41.00;24.03;;;16.00;98.30;;;;;;4152885;28;20469;-80
2021/10/19 19:14:57;;;;;;;;;;;;;;;;;;;;;
2021/10/19 19:17:12;;;;;;;40.13;24.70;;;16.00;98.30;;;;;;4126991;28;20842;-80
2021/10/19 19:19:28;;;;;;;36.07;22.30;;;16.00;98.30;;;;;;4137511;28;20447;-80
2021/10/19 19:21:40;;;;;;;42.83;22.97;;;16.00;98.30;;;;;;4145731;28;20475;-81
2021/10/19 19:23:56;;;;;;;39.43;22.97;;;16.00;98.30;;;;;;4146189;28;20470;-81
2021/10/19 19:26:09;;;;;;;39.10;24.60;;;16.00;98.30;;;;;;4137514;28;20478;-81
2021/10/19 19:28:12;;;;;;;40.90;24.87;;;16.10;98.30;;;;;;4144434;28;20486;-81
2021/10/19 19:30:18;;;;;;;42.00;25.07;;;16.00;98.30;;;;;;4143400;28;20989;-81
2021/10/19 19:32:21;;;;;;;43.87;25.60;;;16.00;98.30;;;;;;4145129;28;20578;-81
2021/10/19 19:34:25;;;;;;;41.40;25.07;;;16.10;98.30;;;;;;4146169;28;20530;-81
2021/10/19 19:36:28;;;;;;;41.23;23.90;;;16.10;98.30;;;;;;4152549;28;20517;-81
2021/10/19 19:38:31;;;;;;;46.10;26.80;;;16.10;98.30;;;;;;4145207;28;20501;-81
2021/10/19 19:40:34;;;;;;;51.93;28.83;;;16.10;98.30;;;;;;4144726;28;20525;-81
2021/10/19 19:42:37;;;;;;;43.57;27.80;;;16.10;98.30;;;;;;4143940;28;20470;-82
2021/10/19 19:44:40;;;;;;;40.47;25.30;;;16.10;98.30;;;;;;4139351;28;20479;-81
2021/10/19 19:46:44;;;;;;;41.53;24.27;;;16.20;98.30;;;;;;4140910;28;20572;-81
2021/10/19 19:48:49;;;;;;;44.27;24.87;;;16.10;98.30;;;;;;4143712;28;20528;-81
2021/10/19 19:50:56;;;;;;;40.43;24.20;;;16.20;98.30;;;;;;4145513;28;20493;-81
2021/10/19 19:53:01;;;;;;;42.60;26.83;;;16.20;98.30;;;;;;4144186;28;20485;-81
2021/10/19 19:55:05;;;;;;;41.70;24.83;;;16.20;98.30;;;;;;4151130;28;20461;-81
2021/10/19 19:57:10;;;;;;;45.53;27.00;;;16.20;98.30;;;;;;4151053;28;20494;-81
2021/10/19 19:59:14;;;;;;;42.30;26.53;;;16.20;98.30;;;;;;4144138;28;20938;-82
2021/10/19 20:01:17;;;;;;;36.73;23.37;;;16.10;98.30;;;;;;4145381;28;20481;-81
2021/10/19 20:03:22;;;;;;;40.60;25.13;;;16.20;98.30;;;;;;4143846;28;20470;-81
2021/10/19 20:05:27;;;;;;;40.27;24.70;;;16.20;98.30;;;;;;4143953;28;20474;-81
2021/10/19 20:07:30;;;;;;;36.60;24.07;;;16.20;98.30;;;;;;4143606;28;20974;-81
2021/10/19 20:09:33;;;;;;;38.83;23.27;;;16.20;98.30;;;;;;4143338;28;20490;-81
2021/10/19 20:11:36;;;;;;;41.37;25.97;;;16.20;98.30;;;;;;4142931;28;20471;-81
2021/10/19 20:13:39;;;;;;;39.63;23.70;;;16.20;98.30;;;;;;4142406;28;20977;-81
2021/10/19 20:15:42;;;;;;;38.67;22.50;;;16.20;98.30;;;;;;4142541;28;20475;-81
2021/10/19 20:17:47;;;;;;;36.07;22.07;;;16.20;98.30;;;;;;4142587;28;20494;-81
2021/10/19 20:19:52;;;;;;;38.20;24.37;;;16.20;98.30;;;;;;4148165;28;20561;-80
2021/10/19 20:21:55;;;;;;;43.80;23.97;;;16.20;98.30;;;;;;4142761;28;20505;-81
2021/10/19 20:23:59;;;;;;;37.20;23.70;;;16.20;98.30;;;;;;4136069;28;20973;-81
2021/10/19 20:26:02;;;;;;;40.23;23.43;;;16.20;98.30;;;;;;4134877;28;20481;-81
2021/10/19 20:28:06;;;;;;;41.63;24.20;;;16.20;98.30;;;;;;4143066;28;21310;-80
2021/10/19 20:30:10;;;;;;;38.53;22.00;;;16.20;98.30;;;;;;4150878;28;20489;-80
2021/10/19 20:32:13;;;;;;;41.20;23.70;;;16.20;98.30;;;;;;4158266;28;21160;-80
2021/10/19 20:34:16;;;;;;;37.43;23.27;;;16.20;98.30;;;;;;4153364;28;20447;-80
2021/10/19 20:36:20;;;;;;;40.20;22.63;;;16.20;98.30;;;;;;4167610;28;20534;-80
2021/10/19 20:38:23;;;;;;;39.43;24.00;;;16.20;98.30;;;;;;4159149;28;20539;-80
2021/10/19 20:40:28;;;;;;;36.17;22.80;;;16.20;98.30;;;;;;4159518;28;20470;-80
2021/10/19 20:42:30;;;;;;;39.83;25.60;;;16.20;98.30;;;;;;4159493;28;20469;-80
2021/10/19 20:44:33;;;;;;;41.33;24.63;;;16.20;98.30;;;;;;4155432;28;20470;-80
2021/10/19 20:46:36;;;;;;;37.00;22.23;;;16.20;98.30;;;;;;4148742;28;20478;-81
2021/10/19 20:48:39;;;;;;;37.83;22.77;;;16.20;98.30;;;;;;4152940;28;20517;-80
2021/10/19 20:50:44;;;;;;;32.57;20.63;;;16.30;98.30;;;;;;4152563;28;20482;-80
2021/10/19 20:52:50;;;;;;;39.03;22.90;;;16.30;98.30;;;;;;4159818;28;20848;-81
2021/10/19 20:54:53;;;;;;;35.93;23.37;;;16.30;98.30;;;;;;4154415;28;20466;-81
2021/10/19 20:56:56;;;;;;;39.37;24.17;;;16.30;98.30;;;;;;4163505;28;20561;-81
2021/10/19 20:58:59;;;;;;;37.10;23.00;;;16.30;98.30;;;;;;4153561;28;20497;-80
2021/10/19 21:01:03;;;;;;;33.20;22.23;;;16.20;98.30;;;;;;4152191;28;20954;-80
2021/10/19 21:03:08;;;;;;;34.93;22.30;;;16.20;98.30;;;;;;4151696;28;20488;-80
2021/10/19 21:05:11;;;;;;;36.93;23.97;;;16.30;98.30;;;;;;4152311;28;20512;-80
2021/10/19 21:07:14;;;;;;;31.33;21.67;;;16.30;98.30;;;;;;4151103;28;20517;-80
2021/10/19 21:09:18;;;;;;;32.57;20.47;;;16.30;98.30;;;;;;4151765;28;20501;-80
2021/10/19 21:11:22;;;;;;;39.60;24.43;;;16.30;98.30;;;;;;4151375;28;20558;-80
2021/10/19 21:13:25;;;;;;;33.43;22.00;;;16.30;98.30;;;;;;4151102;28;20458;-80
2021/10/19 21:15:29;;;;;;;38.87;23.30;;;16.30;98.30;;;;;;4150399;28;20466;-80
2021/10/19 21:17:32;;;;;;;36.67;23.70;;;16.30;98.30;;;;;;4150678;28;20497;-81
2021/10/19 21:19:35;;;;;;;34.37;23.30;;;16.30;98.30;;;;;;4146870;28;20469;-81
2021/10/19 21:21:38;;;;;;;35.03;22.73;;;16.30;98.30;;;;;;4142529;28;20462;-80
2021/10/19 21:23:41;;;;;;;35.50;23.10;;;16.30;98.30;;;;;;4150208;28;20501;-80
2021/10/19 21:25:46;;;;;;;42.40;21.53;;;16.30;98.30;;;;;;4147159;28;20466;-80
2021/10/19 21:27:48;;;;;;;40.33;22.80;;;16.30;98.30;;;;;;4158146;28;20481;-80
2021/10/19 21:29:51;;;;;;;36.10;22.03;;;16.30;98.30;;;;;;4150737;28;20473;-80
2021/10/19 21:31:54;;;;;;;37.97;24.30;;;16.30;98.30;;;;;;4143626;28;20987;-80
2021/10/19 21:33:57;;;;;;;38.17;24.00;;;16.30;98.30;;;;;;4149298;28;20521;-81
2021/10/19 21:36:00;;;;;;;34.93;21.33;;;16.30;98.30;;;;;;4150045;28;20471;-80
2021/10/19 21:38:04;;;;;;;34.87;22.30;;;16.30;98.30;;;;;;4142357;28;20488;-80
2021/10/19 21:40:08;;;;;;;32.60;20.50;;;16.30;98.30;;;;;;4142249;28;20462;-80
2021/10/19 21:42:13;;;;;;;35.10;23.70;;;16.30;98.30;;;;;;4142233;28;20997;-80
2021/10/19 21:44:16;;;;;;;35.13;22.27;;;16.40;98.30;;;;;;4149933;28;20480;-81
2021/10/19 21:46:19;;;;;;;30.83;21.67;;;16.30;98.30;;;;;;4155243;28;20474;-81
2021/10/19 21:48:22;;;;;;;36.23;22.80;;;16.40;98.30;;;;;;4142217;28;20467;-81
2021/10/19 21:50:25;;;;;;;33.70;22.23;;;16.30;98.30;;;;;;4143835;28;21156;-81
2021/10/19 21:52:28;;;;;;;31.87;22.90;;;16.30;98.30;;;;;;4154183;28;21113;-81
2021/10/19 21:54:31;;;;;;;36.87;22.40;;;16.30;98.30;;;;;;4143329;28;20472;-81
2021/10/19 21:56:34;;;;;;;34.53;23.60;;;16.30;98.30;;;;;;4140629;28;20490;-81
2021/10/19 21:58:38;;;;;;;31.47;23.57;;;16.30;98.30;;;;;;4142556;28;20458;-81
2021/10/19 22:00:43;;;;;;;33.13;21.10;;;16.40;98.30;;;;;;4140718;28;20466;-81
2021/10/19 22:02:46;;;;;;;35.80;21.67;;;16.40;98.30;;;;;;4142778;28;20546;-81
2021/10/19 22:04:50;;;;;;;39.77;21.83;;;16.40;98.30;;;;;;4135392;28;20525;-81
2021/10/19 22:06:53;;;;;;;33.27;23.40;;;16.40;98.30;;;;;;4133386;28;21006;-82
2021/10/19 22:08:56;;;;;;;34.70;22.30;;;16.40;98.30;;;;;;4147018;28;21301;-82
2021/10/19 22:11:00;;;;;;;31.17;22.67;;;16.40;98.30;;;;;;4138788;28;20487;-82
2021/10/19 22:13:09;;;;;;;29.50;20.73;;;16.50;98.30;;;;;;4132095;28;20574;-82
2021/10/19 22:15:18;;;;;;;31.57;20.70;;;16.40;98.30;;;;;;4136568;28;20471;-82
2021/10/19 22:17:21;;;;;;;31.57;20.67;;;16.40;98.30;;;;;;4140750;28;20494;-82
2021/10/19 22:19:24;;;;;;;31.37;23.40;;;16.50;98.30;;;;;;4144752;28;20497;-82
2021/10/19 22:21:27;;;;;;;31.50;20.77;;;16.50;98.30;;;;;;4142983;28;20467;-82
2021/10/19 22:28:12;;;;;;;28.97;21.47;;;16.50;98.30;;;;;;4135984;28;20555;-82
2021/10/19 22:30:16;;;;;;;28.43;19.60;;;16.50;98.30;;;;;;4142037;28;20469;-82
2021/10/19 22:32:20;;;;;;;33.23;20.90;;;16.50;98.30;;;;;;4143117;28;20496;-82
2021/10/19 22:34:23;;;;;;;31.10;21.60;;;16.50;98.30;;;;;;4141719;28;20476;-82
2021/10/19 22:36:26;;;;;;;31.70;21.10;;;16.60;98.30;;;;;;4141733;28;20858;-82
2021/10/19 22:38:29;;;;;;;28.87;21.50;;;16.60;98.30;;;;;;4142147;28;20466;-82
2021/10/19 22:40:32;;;;;;;26.67;19.43;;;16.50;98.30;;;;;;4140792;28;21006;-82
2021/10/19 22:42:35;;;;;;;25.93;19.67;;;16.60;98.30;;;;;;4139159;28;20468;-82
2021/10/19 22:44:38;;;;;;;25.00;20.13;;;16.60;98.30;;;;;;4139023;28;20542;-82
2021/10/19 22:46:44;;;;;;;25.67;19.70;;;16.60;98.30;;;;;;4137843;28;20850;-82
2021/10/19 22:48:49;;;;;;;28.03;19.53;;;16.60;98.30;;;;;;4137783;28;20501;-82
2021/10/19 22:50:52;;;;;;;25.33;19.67;;;16.60;98.30;;;;;;4142168;28;20477;-82
2021/10/19 22:52:55;;;;;;;25.20;18.93;;;16.60;98.30;;;;;;4142062;28;20480;-82
2021/10/19 22:54:58;;;;;;;26.67;21.40;;;16.60;98.30;;;;;;4141983;28;20478;-82
2021/10/19 22:57:01;;;;;;;26.53;20.17;;;16.60;98.30;;;;;;4141942;28;20511;-82
2021/10/19 22:59:04;;;;;;;26.97;20.47;;;16.60;98.30;;;;;;4142537;28;20846;-82
2021/10/19 23:01:07;;;;;;;26.33;22.40;;;16.70;98.30;;;;;;4134352;28;20481;-82
2021/10/19 23:03:12;;;;;;;30.57;20.90;;;16.60;98.30;;;;;;4137404;28;20498;-82
2021/10/19 23:05:16;;;;;;;29.87;21.03;;;16.60;98.30;;;;;;4141966;28;20459;-81
2021/10/19 23:07:19;;;;;;;30.23;21.03;;;16.70;98.30;;;;;;4142734;28;20491;-82
2021/10/19 23:09:25;;;;;;;27.03;20.70;;;16.70;98.30;;;;;;4148711;28;20905;-82
2021/10/19 23:11:30;;;;;;;25.43;21.20;;;16.70;98.30;;;;;;4141775;28;20506;-82
2021/10/19 23:13:33;;;;;;;27.80;22.67;;;16.70;98.30;;;;;;4134693;28;20473;-82
2021/10/19 23:15:36;;;;;;;25.90;21.13;;;16.80;98.30;;;;;;4138812;28;20589;-82
2021/10/19 23:17:39;;;;;;;24.37;21.50;;;16.80;98.30;;;;;;4138913;28;20520;-82
2021/10/19 23:19:43;;;;;;;26.20;21.40;;;16.80;98.30;;;;;;4139074;28;20485;-82
2021/10/19 23:21:47;;;;;;;25.83;22.00;;;16.80;98.30;;;;;;4138802;28;20573;-82
2021/10/19 23:23:50;;;;;;;24.90;21.00;;;16.80;98.30;;;;;;4139790;28;21192;-82
2021/10/19 23:25:53;;;;;;;29.83;22.17;;;16.80;98.30;;;;;;4141363;28;20829;-82
2021/10/19 23:27:55;;;;;;;25.07;19.83;;;16.80;98.30;;;;;;4139773;28;21016;-82
2021/10/19 23:29:58;;;;;;;30.10;21.27;;;16.80;98.30;;;;;;4140354;28;20471;-82
2021/10/19 23:32:02;;;;;;;25.73;21.80;;;16.80;98.30;;;;;;4140248;28;20546;-82
2021/10/19 23:34:05;;;;;;;26.73;21.87;;;16.80;98.30;;;;;;4141757;28;20475;-81
2021/10/19 23:36:09;;;;;;;28.90;22.77;;;16.80;98.30;;;;;;4133315;28;20803;-82
2021/10/19 23:38:12;;;;;;;24.63;21.20;;;16.80;98.30;;;;;;4141024;28;20496;-82